Time;durP1;ratioP1;P1;durP2;ratioP2;P2;SDS_P1;SDS_P2;PMS_P1;PMS_P2;Temp;Humidity;BMP_temperature;BMP_pressure;BME280_temperature;BME280_humidity;BME280_pressure;Samples;Min_cycle;Max_cycle;Signal;HPM_P1;HPM_P2
2022/06/04 00:02:05;;;;;;;3.47;2.22;;;;;;;22.63;68.80;99972.13;5088214;28;20032;-83
2022/06/04 00:04:30;;;;;;;4.15;1.95;;;;;;;22.85;69.04;100011.16;5088016;28;20127;-84
2022/06/04 00:06:56;;;;;;;4.85;2.50;;;;;;;22.80;69.12;100008.75;5102287;28;20843;-84
2022/06/04 00:09:28;;;;;;;6.10;2.95;;;;;;;22.82;68.06;100011.34;5107934;28;20099;-84
2022/06/04 00:15:29;;;;;;;4.75;3.65;;;;;;;22.93;67.06;100011.56;5089718;28;20051;-83
2022/06/04 00:17:24;;;;;;;4.28;2.47;;;;;;;22.68;67.91;99988.84;5087486;28;20137;-84
2022/06/04 00:19:50;;;;;;;2.25;2.05;;;;;;;22.68;68.14;99985.31;5093763;28;20038;-85
2022/06/04 00:22:17;;;;;;;5.38;2.50;;;;;;;22.78;68.33;99985.59;5108493;28;20489;-84
2022/06/04 00:24:44;;;;;;;3.53;2.72;;;;;;;22.68;68.06;99990.69;5093318;28;20054;-83
2022/06/04 00:27:20;;;;;;;4.18;2.63;;;;;;;22.64;67.93;100000.72;5107527;28;20030;-83
2022/06/04 00:29:46;;;;;;;4.60;1.98;;;;;;;22.64;67.38;99975.69;5066772;28;20490;-84
2022/06/04 00:32:12;;;;;;;2.67;2.33;;;;;;;22.85;67.25;99997.72;5077514;28;20046;-85
2022/06/04 00:34:38;;;;;;;3.33;2.08;;;;;;;22.71;68.22;99996.72;5087762;28;20450;-84
2022/06/04 00:37:03;;;;;;;3.67;2.50;;;;;;;22.39;68.90;99970.94;5087726;28;20100;-85
2022/06/04 00:39:29;;;;;;;4.47;2.88;;;;;;;22.46;69.32;99983.03;5088278;28;20412;-85
2022/06/04 00:41:59;;;;;;;5.47;3.25;;;;;;;22.56;69.07;99991.41;5091448;28;20055;-85
2022/06/04 00:44:30;;;;;;;4.45;3.13;;;;;;;22.55;69.13;99992.38;5098388;28;20040;-84
2022/06/04 00:47:09;;;;;;;2.97;2.65;;;;;;;22.46;68.67;99959.72;5087104;28;20024;-84
2022/06/04 00:49:35;;;;;;;5.80;2.38;;;;;;;22.63;68.90;99985.59;5086635;28;20032;-84
2022/06/04 00:52:02;;;;;;;3.85;3.17;;;;;;;22.39;69.17;99968.25;5096946;28;20062;-85
2022/06/04 00:54:28;;;;;;;3.15;2.38;;;;;;;22.50;68.04;99988.13;5095096;28;20051;-83
2022/06/04 00:57:07;;;;;;;5.95;2.70;;;;;;;22.37;68.72;99991.63;5108088;28;20042;-83
2022/06/04 00:59:51;;;;;;;3.67;2.45;;;;;;;22.27;69.11;99978.72;5107928;28;20603;-84
2022/06/04 01:02:23;;;;;;;4.53;3.03;;;;;;;22.34;68.93;99984.63;5083067;28;20059;-84
2022/06/04 01:05:13;;;;;;;8.40;3.58;;;;;;;22.18;68.97;99990.88;5086041;28;20036;-83
2022/06/04 01:08:16;;;;;;;2.78;2.15;;;;;;;21.90;70.33;99990.75;5065806;28;20059;-83
2022/06/04 01:11:07;;;;;;;6.25;2.13;;;;;;;21.96;70.06;99993.06;5086734;28;20031;-84
2022/06/04 01:13:48;;;;;;;3.38;2.75;;;;;;;22.08;69.61;99980.78;5086730;28;20037;-84
2022/06/04 01:16:43;;;;;;;3.80;2.60;;;;;;;22.03;69.41;99978.34;5095888;28;20043;-84
2022/06/04 01:19:20;;;;;;;4.85;2.67;;;;;;;22.09;69.45;99986.06;5107272;28;20153;-83
2022/06/04 01:21:58;;;;;;;4.15;2.85;;;;;;;21.98;69.76;99984.00;5106304;28;20472;-83
2022/06/04 01:24:26;;;;;;;4.65;2.08;;;;;;;21.79;69.96;99985.97;5106580;28;20046;-82
2022/06/04 01:26:51;;;;;;;4.13;2.20;;;;;;;21.51;70.95;99984.84;5107088;28;20505;-83
2022/06/04 01:29:20;;;;;;;4.25;3.10;;;;;;;21.55;71.07;99974.81;5091318;28;20044;-83
2022/06/04 01:31:46;;;;;;;6.40;3.33;;;;;;;21.39;72.45;99969.41;5066599;28;20468;-84
2022/06/04 01:34:15;;;;;;;4.07;2.72;;;;;;;21.46;71.79;99949.34;5082999;28;20044;-84
2022/06/04 01:36:53;;;;;;;6.50;2.17;;;;;;;21.70;71.47;99968.56;5086984;28;20148;-84
2022/06/04 01:39:25;;;;;;;3.28;2.22;;;;;;;21.68;71.00;99954.38;5086347;28;20530;-84
2022/06/04 01:41:58;;;;;;;6.72;2.35;;;;;;;21.87;70.73;99972.97;5100268;28;20028;-83
2022/06/04 01:44:38;;;;;;;4.20;2.33;;;;;;;21.68;70.73;99973.16;5087956;28;20025;-84
2022/06/04 01:47:05;;;;;;;4.80;3.03;;;;;;;21.56;71.07;99949.72;5072026;28;20082;-83
2022/06/04 01:49:39;;;;;;;4.85;2.22;;;;;;;21.72;71.08;99969.38;5091876;28;20036;-83
2022/06/04 01:52:20;;;;;;;4.70;2.78;;;;;;;21.52;71.56;99954.41;5104594;28;20032;-84
2022/06/04 01:54:56;;;;;;;7.38;3.20;;;;;;;21.42;72.54;99972.78;5090759;28;20056;-84
2022/06/04 01:57:56;;;;;;;3.92;2.70;;;;;;;21.53;72.46;99969.53;5090752;28;20036;-84
2022/06/04 02:00:49;;;;;;;3.80;2.28;;;;;;;21.54;72.32;99970.41;5083154;28;20067;-84
2022/06/04 02:03:20;;;;;;;5.60;2.70;;;;;;;21.49;72.63;99961.69;5080555;28;20040;-83
2022/06/04 02:05:59;;;;;;;4.40;3.03;;;;;;;21.43;72.60;99941.47;5110279;28;20027;-84
2022/06/04 02:08:32;;;;;;;3.45;2.75;;;;;;;21.63;72.38;99977.94;5106505;28;20185;-84
2022/06/04 02:11:05;;;;;;;5.20;3.70;;;;;;;21.60;71.69;99962.03;5090623;28;20031;-84
2022/06/04 02:13:31;;;;;;;4.53;2.80;;;;;;;21.50;72.51;99958.97;5090510;28;20040;-84
2022/06/04 02:16:20;;;;;;;3.50;2.40;;;;;;;21.59;72.20;99982.59;5077780;28;20055;-84
2022/06/04 02:18:46;;;;;;;5.10;3.33;;;;;;;21.42;72.61;99972.78;5080464;28;20034;-84
2022/06/04 02:21:13;;;;;;;3.95;2.55;;;;;;;21.47;72.46;99977.88;5110858;27;20043;-84
2022/06/04 02:23:38;;;;;;;5.07;2.75;;;;;;;21.44;72.82;99986.09;5101020;28;20839;-85
2022/06/04 02:26:04;;;;;;;3.70;3.15;;;;;;;20.86;74.16;99953.47;5089898;28;20172;-83
2022/06/04 02:28:30;;;;;;;4.60;3.70;;;;;;;21.20;73.90;99982.97;5096638;28;20134;-84
2022/06/04 02:31:10;;;;;;;7.18;4.50;;;;;;;20.90;74.57;99959.56;5105609;28;20417;-85
2022/06/04 02:33:35;;;;;;;4.45;2.50;;;;;;;21.14;74.09;99986.84;5085651;28;20034;-83
2022/06/04 02:36:10;;;;;;;5.10;3.08;;;;;;;21.23;73.69;99988.19;5110725;28;20471;-83
2022/06/04 02:39:10;;;;;;;4.40;2.83;;;;;;;21.14;73.88;99994.91;5109212;28;20036;-84
2022/06/04 02:41:45;;;;;;;4.50;2.40;;;;;;;20.97;74.80;99993.13;5102547;28;20031;-83
2022/06/04 02:44:17;;;;;;;4.72;2.85;;;;;;;20.83;75.75;100011.75;5093459;28;20048;-85
2022/06/04 02:46:49;;;;;;;7.03;3.53;;;;;;;20.58;75.90;99987.06;5089481;28;20822;-85
2022/06/04 02:49:24;;;;;;;5.30;2.58;;;;;;;20.80;75.79;100017.28;5108145;28;20035;-85
2022/06/04 02:51:53;;;;;;;3.63;2.95;;;;;;;20.78;75.79;100006.66;5109937;28;20516;-85
2022/06/04 02:54:50;;;;;;;6.07;4.50;;;;;;;20.78;75.93;100001.28;5094589;28;20048;-84
2022/06/04 02:57:16;;;;;;;3.90;2.97;;;;;;;20.77;75.70;99994.19;5084580;28;20044;-84
2022/06/04 02:59:44;;;;;;;4.75;3.15;;;;;;;20.92;74.77;99993.38;5103506;28;20035;-84
2022/06/04 03:02:14;;;;;;;3.97;2.65;;;;;;;20.72;75.96;99998.94;5109756;28;20042;-84
2022/06/04 03:04:53;;;;;;;4.00;3.22;;;;;;;20.86;74.91;99995.53;5089874;28;20075;-85
2022/06/04 03:07:21;;;;;;;5.47;3.60;;;;;;;21.09;75.19;100031.84;5107291;28;20036;-85
2022/06/04 03:09:49;;;;;;;4.78;2.70;;;;;;;20.86;74.84;100015.13;5093270;28;20024;-85
2022/06/04 03:12:14;;;;;;;5.68;3.60;;;;;;;20.66;76.14;100040.31;5089673;28;20028;-84
2022/06/04 03:14:41;;;;;;;4.75;3.20;;;;;;;20.57;76.09;100046.09;5088149;28;20039;-83
2022/06/04 03:17:09;;;;;;;4.85;3.03;;;;;;;20.40;76.23;100001.41;5087645;28;20040;-83
2022/06/04 03:19:35;;;;;;;28.88;6.43;;;;;;;20.62;75.46;100011.91;5098838;28;20112;-84
2022/06/04 03:22:01;;;;;;;5.38;2.95;;;;;;;20.73;74.82;100022.97;5108712;28;20031;-85
2022/06/04 03:24:27;;;;;;;6.70;2.97;;;;;;;20.92;74.83;100035.41;5089031;28;20032;-85
2022/06/04 03:26:52;;;;;;;6.63;4.70;;;;;;;20.92;74.49;100028.22;5088228;28;20132;-84
2022/06/04 03:29:18;;;;;;;4.75;3.30;;;;;;;20.99;73.37;100011.81;5103612;28;20118;-84
2022/06/04 03:31:44;;;;;;;5.47;2.97;;;;;;;20.89;73.48;100014.97;5104884;28;20032;-84
2022/06/04 03:34:10;;;;;;;4.65;3.28;;;;;;;20.97;73.88;100049.44;5108568;28;20114;-84
2022/06/04 03:36:36;;;;;;;6.72;4.45;;;;;;;20.98;73.79;100021.69;5107573;28;20447;-84
2022/06/04 03:39:03;;;;;;;4.78;3.50;;;;;;;21.10;73.61;100041.59;5094100;28;20063;-85
2022/06/04 03:41:29;;;;;;;6.03;3.35;;;;;;;21.07;72.76;100005.09;5087240;28;20115;-84
2022/06/04 03:43:54;;;;;;;4.78;2.97;;;;;;;21.36;72.67;100042.03;5100119;28;20058;-84
2022/06/04 03:46:21;;;;;;;4.30;2.80;;;;;;;21.41;71.89;100029.22;5087925;28;20606;-85
2022/06/04 03:48:47;;;;;;;3.50;2.67;;;;;;;21.76;70.06;100019.22;5094281;28;20032;-85
2022/06/04 03:51:13;;;;;;;4.03;2.25;;;;;;;21.57;71.17;100013.19;5088097;28;20043;-84
2022/06/04 03:53:38;;;;;;;4.13;3.22;;;;;;;21.74;69.67;100015.78;5076089;28;20041;-85
2022/06/04 03:56:04;;;;;;;4.05;2.65;;;;;;;21.82;69.97;100044.88;5087977;28;20059;-85
2022/06/04 03:58:32;;;;;;;3.95;2.85;;;;;;;21.91;70.52;100056.94;5087775;28;20115;-85
2022/06/04 04:00:58;;;;;;;6.32;3.55;;;;;;;21.79;70.20;100042.38;5101089;28;20031;-85
2022/06/04 04:03:24;;;;;;;4.10;3.15;;;;;;;21.62;69.99;100011.09;5089173;28;20035;-86
2022/06/04 04:05:55;;;;;;;5.45;2.97;;;;;;;22.22;68.87;100050.66;5086894;28;20036;-85
2022/06/04 04:08:24;;;;;;;5.43;2.90;;;;;;;22.08;69.73;100037.19;5092423;28;20027;-84
2022/06/04 04:10:50;;;;;;;5.70;3.38;;;;;;;22.18;70.23;100051.78;5093234;28;20039;-84
2022/06/04 04:13:16;;;;;;;4.38;3.00;;;;;;;22.41;69.34;100055.00;5087425;28;20032;-83
2022/06/04 04:15:43;;;;;;;7.05;3.17;;;;;;;22.69;67.63;100059.59;5066865;28;20828;-84
2022/06/04 04:18:09;;;;;;;2.35;1.90;;;;;;;22.78;66.80;100036.69;5066449;28;20425;-84
2022/06/04 04:20:38;;;;;;;6.55;3.38;;;;;;;23.07;66.44;100045.66;5089225;28;20039;-85
2022/06/04 04:23:06;;;;;;;5.85;3.20;;;;;;;23.08;66.47;100047.41;5092190;28;20036;-85
2022/06/04 04:25:33;;;;;;;4.82;2.63;;;;;;;23.34;66.36;100044.94;5087380;28;20031;-84
2022/06/04 04:28:00;;;;;;;4.82;3.05;;;;;;;23.55;66.10;100042.72;5086451;28;20038;-83
2022/06/04 04:30:28;;;;;;;4.85;2.63;;;;;;;23.75;64.29;100030.69;5100526;28;20035;-84
2022/06/04 04:32:54;;;;;;;4.28;2.97;;;;;;;23.85;64.35;100047.13;5099811;28;20047;-85
2022/06/04 04:35:26;;;;;;;3.47;2.70;;;;;;;24.07;64.05;100047.47;5106593;28;20081;-85
2022/06/04 04:37:53;;;;;;;6.32;4.15;;;;;;;24.18;62.26;100043.22;5091179;28;20034;-84
2022/06/04 04:40:21;;;;;;;4.18;2.95;;;;;;;24.32;62.81;100053.94;5087275;28;20509;-84
2022/06/04 04:42:49;;;;;;;3.85;2.55;;;;;;;24.13;61.60;100049.75;5098148;28;20118;-84
2022/06/04 04:45:17;;;;;;;5.38;3.28;;;;;;;24.04;61.54;100025.25;5090937;28;20036;-84
2022/06/04 04:47:44;;;;;;;5.20;2.85;;;;;;;24.53;62.28;100056.16;5090488;28;20084;-84
2022/06/04 04:50:26;;;;;;;5.35;3.60;;;;;;;24.39;61.54;100030.13;5085965;28;20031;-84
2022/06/04 04:52:53;;;;;;;6.85;3.53;;;;;;;24.73;60.69;100060.22;5090192;28;20448;-84
2022/06/04 04:55:18;;;;;;;4.00;2.92;;;;;;;24.46;60.61;100064.66;5092086;28;20051;-84
2022/06/04 04:57:44;;;;;;;3.47;2.25;;;;;;;24.90;59.85;100035.66;5105428;28;20020;-84
2022/06/04 05:00:10;;;;;;;4.22;3.08;;;;;;;25.32;59.39;100055.22;5105263;28;20525;-84
2022/06/04 05:02:36;;;;;;;2.83;1.98;;;;;;;25.58;57.61;100063.31;5093931;28;20031;-84
2022/06/04 05:05:03;;;;;;;4.20;3.13;;;;;;;25.55;56.14;100034.69;5086256;28;20055;-85
2022/06/04 05:07:29;;;;;;;4.38;3.30;;;;;;;25.96;57.17;100034.47;5086648;28;20028;-84
2022/06/04 05:09:54;;;;;;;12.43;3.88;;;;;;;26.18;55.59;100039.16;5087480;28;20036;-85
2022/06/04 05:12:20;;;;;;;3.85;2.42;;;;;;;26.52;54.34;100050.13;5095574;28;20035;-85
2022/06/04 05:14:45;;;;;;;3.10;2.38;;;;;;;26.70;54.62;100070.41;5076985;28;20429;-85
2022/06/04 05:17:11;;;;;;;3.92;2.83;;;;;;;25.85;55.62;100038.81;5086154;28;20036;-84
2022/06/04 05:19:36;;;;;;;9.45;3.53;;;;;;;26.09;54.75;100054.25;5085659;28;20032;-84
2022/06/04 05:22:03;;;;;;;4.72;2.97;;;;;;;25.78;56.84;100061.88;5090658;28;20042;-83
2022/06/04 05:24:31;;;;;;;6.45;4.50;;;;;;;25.89;55.92;100048.44;5089274;28;20032;-84
2022/06/04 05:26:57;;;;;;;13.30;3.08;;;;;;;26.16;56.07;100047.38;5108191;28;20028;-84
2022/06/04 05:29:23;;;;;;;5.93;3.90;;;;;;;26.17;54.63;100048.28;5109040;28;20030;-84
2022/06/04 05:31:50;;;;;;;5.07;4.25;;;;;;;26.22;54.60;100052.34;5089803;28;20063;-86
2022/06/04 05:34:17;;;;;;;3.45;2.83;;;;;;;26.56;55.69;100054.34;5090215;28;20039;-86
2022/06/04 05:36:43;;;;;;;4.63;3.25;;;;;;;26.98;55.23;100065.56;5096472;28;20039;-85
2022/06/04 05:39:09;;;;;;;3.40;2.50;;;;;;;27.21;52.79;100057.50;5094982;28;20488;-85
2022/06/04 05:41:36;;;;;;;5.45;3.47;;;;;;;27.54;53.21;100074.78;5110081;28;20046;-85
2022/06/04 05:44:03;;;;;;;5.70;3.20;;;;;;;27.41;52.80;100048.66;5100377;27;20436;-83
2022/06/04 05:46:28;;;;;;;5.10;3.28;;;;;;;27.82;52.83;100076.09;5110659;28;20023;-85
2022/06/04 05:48:54;;;;;;;5.20;3.25;;;;;;;27.69;53.48;100065.41;5099967;28;20717;-84
2022/06/04 05:51:22;;;;;;;6.32;3.40;;;;;;;27.61;53.96;100065.19;5099997;28;20032;-84
2022/06/04 05:53:48;;;;;;;8.00;2.65;;;;;;;27.65;52.59;100086.50;5079170;28;20108;-84
2022/06/04 05:56:21;;;;;;;5.55;2.63;;;;;;;27.19;52.39;100056.72;5069875;28;20032;-83
2022/06/04 05:58:48;;;;;;;6.30;4.18;;;;;;;27.28;56.64;100072.25;5085691;28;20040;-84
2022/06/04 06:01:15;;;;;;;6.50;3.80;;;;;;;27.98;54.20;100075.78;5070042;28;20413;-84
2022/06/04 06:03:42;;;;;;;5.30;3.90;;;;;;;28.22;52.67;100068.31;5070857;28;20025;-83
2022/06/04 06:06:17;;;;;;;5.63;3.67;;;;;;;28.46;53.45;100072.66;5071167;28;20040;-86
2022/06/04 06:08:43;;;;;;;5.80;2.70;;;;;;;28.25;55.45;100069.91;5078641;28;20114;-85
2022/06/04 06:11:11;;;;;;;3.90;2.97;;;;;;;28.35;53.18;100061.88;5091108;28;20036;-85
2022/06/04 06:13:38;;;;;;;5.50;3.75;;;;;;;28.45;53.31;100075.50;5090986;28;20088;-87
2022/06/04 06:16:09;;;;;;;7.13;3.28;;;;;;;28.09;54.85;100086.59;5089603;28;20036;-86
2022/06/04 06:18:35;;;;;;;4.05;2.45;;;;;;;28.92;51.55;100076.09;5090585;28;20053;-85
2022/06/04 06:21:15;;;;;;;4.53;2.85;;;;;;;28.62;53.18;100079.56;5109349;28;20048;-85
2022/06/04 06:23:41;;;;;;;3.97;2.60;;;;;;;28.58;50.00;100058.09;5090928;28;20091;-85
2022/06/04 06:26:11;;;;;;;4.40;2.50;;;;;;;28.69;50.13;100084.31;5078761;28;20494;-87
2022/06/04 06:28:37;;;;;;;4.13;3.15;;;;;;;28.55;50.41;100052.06;5090745;28;20038;-88
2022/06/04 06:31:04;;;;;;;4.95;2.92;;;;;;;28.90;49.84;100062.63;5108248;28;20502;-89
2022/06/04 06:33:29;;;;;;;5.53;2.95;;;;;;;29.13;50.00;100042.63;5107730;28;20143;-89
2022/06/04 06:35:57;;;;;;;4.50;3.17;;;;;;;30.12;46.88;100060.09;5103368;28;20115;-90
2022/06/04 06:38:22;;;;;;;3.75;2.63;;;;;;;30.35;45.72;100021.72;5098323;27;20066;-89
2022/06/04 06:40:48;;;;;;;3.17;2.00;;;;;;;31.03;46.78;100050.81;5092902;28;20075;-89
2022/06/04 06:43:13;;;;;;;3.85;2.45;;;;;;;30.39;45.91;100044.97;5092337;28;20409;-89
2022/06/04 06:45:41;;;;;;;3.45;2.17;;;;;;;30.51;43.27;100056.56;5087007;28;20089;-88
2022/06/04 06:48:08;;;;;;;6.22;3.75;;;;;;;30.82;45.41;100053.69;5089573;28;20040;-90
2022/06/04 06:50:34;;;;;;;2.58;2.00;;;;;;;30.53;44.77;100052.69;5104765;28;20061;-89
2022/06/04 06:53:00;;;;;;;4.60;2.85;;;;;;;30.07;46.69;100056.91;5108485;28;20390;-87
2022/06/04 06:55:25;;;;;;;5.18;2.83;;;;;;;29.94;46.63;100050.88;5109041;28;20104;-89
2022/06/04 06:57:51;;;;;;;4.65;3.08;;;;;;;30.26;43.98;100041.63;5101013;28;20085;-88
2022/06/04 07:00:17;;;;;;;4.45;3.20;;;;;;;30.45;45.80;100041.66;5088633;28;20035;-88
2022/06/04 07:02:42;;;;;;;3.45;2.47;;;;;;;30.65;42.95;100030.78;5089131;28;20036;-89
2022/06/04 07:05:08;;;;;;;2.47;2.13;;;;;;;30.95;44.36;100059.66;5088936;28;20064;-88
2022/06/04 07:07:34;;;;;;;3.80;2.80;;;;;;;31.24;43.97;100048.75;5089596;28;20024;-89
2022/06/04 07:09:59;;;;;;;3.03;1.98;;;;;;;31.89;41.03;100060.69;5107856;28;20526;-89
2022/06/04 07:12:25;;;;;;;4.93;2.55;;;;;;;32.15;43.09;100044.47;5097017;28;20068;-88
2022/06/04 07:14:50;;;;;;;5.25;2.53;;;;;;;31.75;41.93;100048.44;5089450;28;20115;-90
2022/06/04 07:17:16;;;;;;;3.45;2.67;;;;;;;31.97;41.65;100024.47;5088815;28;20067;-87
2022/06/04 07:19:41;;;;;;;2.47;1.90;;;;;;;32.39;41.25;100051.19;5078180;28;20040;-87
2022/06/04 07:22:07;;;;;;;2.67;1.95;;;;;;;32.63;39.76;100015.06;5083196;28;20469;-88
2022/06/04 07:24:32;;;;;;;4.13;2.03;;;;;;;33.14;38.60;100056.28;5088115;28;20031;-86
2022/06/04 07:26:58;;;;;;;3.25;2.33;;;;;;;32.53;36.91;100053.38;5088096;28;20064;-86
2022/06/04 07:29:26;;;;;;;4.50;2.63;;;;;;;31.94;43.13;100036.53;5088060;28;20550;-87
2022/06/04 07:31:51;;;;;;;3.58;2.42;;;;;;;31.68;41.98;100000.97;5086835;28;20475;-87
2022/06/04 07:34:17;;;;;;;3.60;2.70;;;;;;;32.18;40.35;100021.47;5087904;28;20135;-87
2022/06/04 07:36:44;;;;;;;4.82;2.13;;;;;;;32.45;40.44;100039.66;5087332;28;20038;-87
2022/06/04 07:39:11;;;;;;;4.47;2.38;;;;;;;32.78;38.55;100016.25;5087444;28;20024;-87
2022/06/04 07:41:40;;;;;;;3.42;2.05;;;;;;;33.28;39.24;100027.53;5087677;28;20034;-88
2022/06/04 07:44:07;;;;;;;4.32;2.00;;;;;;;33.45;37.68;100003.88;5087520;28;20020;-87
2022/06/04 07:46:32;;;;;;;2.65;2.00;;;;;;;33.41;38.16;100002.47;5087302;28;20024;-88
2022/06/04 07:49:00;;;;;;;4.72;3.42;;;;;;;33.67;38.50;100016.94;5086475;28;20032;-87
2022/06/04 07:51:27;;;;;;;5.78;2.65;;;;;;;33.61;38.70;100014.84;5087051;28;20113;-87
2022/06/04 07:53:53;;;;;;;2.25;1.90;;;;;;;33.54;35.93;100006.47;5086659;28;20066;-87
2022/06/04 07:56:20;;;;;;;3.20;1.80;;;;;;;33.52;35.73;100022.19;5087921;28;20036;-87
2022/06/04 07:58:46;;;;;;;7.47;2.15;;;;;;;33.48;38.08;100037.19;5087164;28;20109;-87
2022/06/04 08:01:14;;;;;;;3.53;2.42;;;;;;;32.74;38.52;100016.72;5086796;28;20132;-87
2022/06/04 08:03:42;;;;;;;2.17;1.55;;;;;;;33.31;38.59;100013.53;5087283;28;20097;-87
2022/06/04 08:06:10;;;;;;;3.92;2.25;;;;;;;33.64;36.30;99994.53;5087194;28;20166;-86
2022/06/04 08:08:35;;;;;;;4.40;2.88;;;;;;;33.64;38.64;100010.94;5084674;28;20112;-87
2022/06/04 08:11:30;;;;;;;1.83;1.48;;;;;;;33.37;37.34;100008.28;5065825;28;20098;-88
2022/06/04 08:13:47;;;;;;;1.70;1.48;;;;;;;33.49;37.10;100017.06;5074302;28;20567;-87
2022/06/04 08:16:13;;;;;;;2.45;1.70;;;;;;;33.59;37.33;100024.25;5086994;28;20036;-86
2022/06/04 08:18:38;;;;;;;3.35;1.35;;;;;;;33.81;36.36;100020.09;5086849;28;20436;-85
2022/06/04 08:21:06;;;;;;;4.35;1.85;;;;;;;33.93;35.85;100021.50;5086159;28;20433;-84
2022/06/04 08:23:32;;;;;;;2.88;1.70;;;;;;;34.10;35.84;100005.13;5087436;28;20024;-84
2022/06/04 08:25:57;;;;;;;6.00;1.92;;;;;;;34.41;34.86;99998.00;5088133;28;20039;-87
2022/06/04 08:28:23;;;;;;;2.95;1.95;;;;;;;34.55;36.39;100001.06;5095249;28;20769;-89
2022/06/04 08:31:00;;;;;;;1.52;1.27;;;;;;;34.21;37.07;99997.44;5085854;28;20034;-88
2022/06/04 08:33:26;;;;;;;2.95;2.08;;;;;;;34.19;35.01;99987.69;5087349;28;20055;-87
2022/06/04 08:35:52;;;;;;;2.35;1.23;;;;;;;34.14;36.26;99999.16;5085919;28;20046;-86
2022/06/04 08:38:17;;;;;;;2.60;1.33;;;;;;;33.90;36.90;99992.59;5086952;28;20068;-86
2022/06/04 08:40:55;;;;;;;2.75;1.77;;;;;;;34.05;35.38;100005.63;5067608;28;20028;-86
2022/06/04 08:44:06;;;;;;;2.28;1.30;;;;;;;34.33;34.66;99984.31;5067018;28;20040;-86
2022/06/04 08:47:07;;;;;;;2.08;1.42;;;;;;;34.57;34.49;99977.97;5065811;28;20085;-88
2022/06/04 08:50:07;;;;;;;5.45;1.88;;;;;;;34.63;33.80;99986.53;5072639;28;20036;-88
2022/06/04 08:52:43;;;;;;;1.77;1.10;;;;;;;34.28;32.65;99980.34;5050736;28;20110;-87
2022/06/04 08:58:50;;;;;;;4.93;1.80;;;;;;;34.65;31.74;99987.19;5068716;28;20525;-86
2022/06/04 09:01:26;;;;;;;2.35;1.60;;;;;;;34.83;33.13;99978.81;5070648;28;20031;-88
2022/06/04 09:03:59;;;;;;;2.25;1.35;;;;;;;34.53;35.36;99951.97;5070912;28;20036;-87
2022/06/04 09:06:45;;;;;;;4.18;1.95;;;;;;;34.97;32.86;99969.88;5071378;28;20458;-85
2022/06/04 09:09:33;;;;;;;2.05;1.23;;;;;;;35.23;34.43;99975.13;5072411;28;20040;-86
2022/06/04 09:12:07;;;;;;;1.48;1.10;;;;;;;35.10;34.10;99977.56;5071715;28;20143;-88
2022/06/04 09:14:41;;;;;;;2.03;1.33;;;;;;;35.31;31.03;99968.78;5071487;28;20032;-85
2022/06/04 09:17:34;;;;;;;2.05;1.40;;;;;;;35.23;33.05;99941.38;5072332;28;20059;-86
2022/06/04 09:19:59;;;;;;;1.33;0.98;;;;;;;35.21;32.38;99962.66;5071542;28;20029;-84
2022/06/04 09:22:38;;;;;;;4.35;1.65;;;;;;;34.82;32.33;99947.84;5071696;28;20032;-85
2022/06/04 09:25:04;;;;;;;2.80;1.73;;;;;;;34.61;32.89;99932.78;5070481;28;20044;-85
2022/06/04 09:27:42;;;;;;;4.68;1.20;;;;;;;34.67;34.42;99906.59;5070926;28;20028;-84
2022/06/04 09:30:34;;;;;;;1.85;1.25;;;;;;;34.82;31.55;99917.72;5087303;28;20068;-88
2022/06/04 09:33:33;;;;;;;1.55;1.10;;;;;;;34.99;31.74;99956.88;5093407;28;20024;-86
2022/06/04 09:35:59;;;;;;;2.30;1.40;;;;;;;34.83;32.52;99956.91;5100424;28;20028;-85
2022/06/04 09:38:32;;;;;;;2.90;1.50;;;;;;;35.10;31.55;99945.53;5110971;28;20041;-85
2022/06/04 09:41:02;;;;;;;3.95;1.10;;;;;;;34.69;32.11;99911.88;5101715;28;20043;-84
2022/06/04 09:43:28;;;;;;;1.55;1.00;;;;;;;34.42;32.48;99919.47;5091354;28;20804;-85
2022/06/04 09:46:07;;;;;;;3.33;1.30;;;;;;;34.41;32.32;99924.06;5093226;28;20077;-84
2022/06/04 09:48:35;;;;;;;3.38;2.70;;;;;;;34.10;32.31;99914.81;5093412;28;20063;-88
2022/06/04 09:51:05;;;;;;;1.30;1.00;;;;;;;34.35;30.38;99897.38;5093736;28;20509;-88
2022/06/04 09:53:41;;;;;;;1.30;0.80;;;;;;;34.15;30.87;99890.53;5091778;28;20074;-88
2022/06/04 09:56:33;;;;;;;3.47;2.30;;;;;;;34.63;32.11;99915.31;5091507;28;20028;-87
2022/06/04 09:59:21;;;;;;;1.10;1.00;;;;;;;34.46;31.73;99911.75;5090084;28;20088;-87
2022/06/04 10:02:01;;;;;;;1.38;0.90;;;;;;;34.39;30.54;99914.34;5089540;28;20086;-86
2022/06/04 10:04:38;;;;;;;2.15;1.20;;;;;;;34.59;29.73;99892.91;5091302;28;20063;-89
2022/06/04 10:07:14;;;;;;;3.63;1.45;;;;;;;34.97;29.00;99869.38;5089433;28;20118;-90
2022/06/04 10:09:58;;;;;;;2.75;1.20;;;;;;;34.97;31.74;99904.13;5090984;28;20557;-87
2022/06/04 10:15:26;;;;;;;2.40;1.77;;;;;;;34.30;32.05;99897.06;5014125;28;20299;-85
2022/06/04 10:18:23;;;;;;;5.22;2.33;;;;;;;34.51;30.64;99885.56;5031769;28;20025;-92
2022/06/04 10:20:57;;;;;;;3.22;2.22;;;;;;;33.73;33.04;99863.13;5030193;28;20042;-85
2022/06/04 10:23:23;;;;;;;3.13;1.90;;;;;;;34.19;32.22;99861.78;5030073;28;20380;-85
2022/06/04 10:25:57;;;;;;;1.23;1.00;;;;;;;33.97;34.23;99872.41;5029963;28;20036;-86
2022/06/04 10:28:57;;;;;;;2.17;1.30;;;;;;;33.97;32.78;99857.84;5028859;28;20550;-85
2022/06/04 10:31:31;;;;;;;1.95;1.35;;;;;;;33.76;33.46;99874.78;5038923;28;20040;-89
2022/06/04 10:34:18;;;;;;;2.90;1.77;;;;;;;33.51;34.55;99872.81;5020107;28;20072;-84
2022/06/04 10:36:47;;;;;;;3.63;1.35;;;;;;;33.86;34.96;99868.13;5020352;28;20052;-83
2022/06/04 10:39:19;;;;;;;1.50;1.23;;;;;;;33.96;35.21;99861.63;5009604;28;20048;-86
2022/06/04 10:42:01;;;;;;;2.20;1.40;;;;;;;33.57;34.18;99870.44;5019835;28;20059;-84
2022/06/04 10:44:53;;;;;;;2.97;1.20;;;;;;;33.37;33.49;99865.28;5014356;28;20431;-85
2022/06/04 10:47:39;;;;;;;3.25;1.58;;;;;;;33.52;35.19;99854.53;5011059;28;20054;-85
2022/06/04 10:50:20;;;;;;;2.70;1.38;;;;;;;33.61;34.94;99861.72;5009765;28;20037;-83
2022/06/04 10:52:48;;;;;;;1.30;1.13;;;;;;;34.16;34.95;99863.00;5024603;28;20120;-85
2022/06/04 10:55:20;;;;;;;1.67;1.00;;;;;;;33.79;32.15;99830.69;5028879;28;21003;-88
2022/06/04 10:58:27;;;;;;;4.45;1.77;;;;;;;34.37;31.11;99848.81;5029473;28;20112;-87
2022/06/04 11:01:20;;;;;;;2.10;1.27;;;;;;;34.69;31.79;99841.50;5021670;28;20029;-87
2022/06/04 11:04:07;;;;;;;2.07;1.40;;;;;;;34.04;34.40;99839.75;5024205;28;20037;-85
2022/06/04 11:06:46;;;;;;;2.28;1.50;;;;;;;33.73;33.58;99824.00;5030121;28;20044;-85
2022/06/04 11:09:18;;;;;;;3.42;1.40;;;;;;;33.60;35.36;99842.75;5030381;28;20116;-84
2022/06/04 11:11:52;;;;;;;1.95;1.08;;;;;;;33.77;34.83;99840.91;5031062;28;20499;-87
2022/06/04 11:14:35;;;;;;;3.13;1.23;;;;;;;33.91;38.73;99823.84;5030651;28;20037;-86
2022/06/04 11:17:18;;;;;;;2.58;1.75;;;;;;;34.54;33.07;99819.50;5029147;28;20537;-91
2022/06/04 11:20:04;;;;;;;2.08;1.60;;;;;;;34.67;33.57;99820.84;5010994;28;20034;-85
2022/06/04 11:22:36;;;;;;;1.90;1.60;;;;;;;34.49;34.66;99805.47;5010488;28;20056;-87
2022/06/04 11:25:13;;;;;;;3.70;2.42;;;;;;;34.02;36.09;99776.97;5018917;28;20064;-83
2022/06/04 11:27:47;;;;;;;3.03;2.13;;;;;;;33.92;34.82;99814.59;5026438;28;20029;-85
2022/06/04 11:30:18;;;;;;;1.45;1.10;;;;;;;33.70;34.97;99799.69;5027929;28;20663;-85
2022/06/04 11:33:13;;;;;;;1.52;1.25;;;;;;;34.48;33.15;99819.31;5027264;28;20033;-84
2022/06/04 11:35:41;;;;;;;2.47;1.35;;;;;;;34.48;32.69;99822.94;5028473;28;20048;-82
2022/06/04 11:38:23;;;;;;;2.97;1.63;;;;;;;34.60;33.47;99807.84;5027583;28;20052;-81
2022/06/04 11:41:27;;;;;;;2.20;1.33;;;;;;;34.75;33.25;99799.75;5027208;28;20029;-82
2022/06/04 11:44:28;;;;;;;1.83;1.10;;;;;;;34.16;33.34;99791.84;5027657;28;20467;-83
2022/06/04 11:47:20;;;;;;;2.63;1.95;;;;;;;33.91;35.28;99791.03;5008274;28;20034;-81
2022/06/04 11:49:45;;;;;;;2.13;1.48;;;;;;;34.25;35.63;99781.75;5007103;28;20038;-82
2022/06/04 11:52:37;;;;;;;2.78;1.52;;;;;;;34.46;35.25;99785.81;5008081;28;20112;-81
2022/06/04 11:55:29;;;;;;;3.22;1.58;;;;;;;34.08;34.15;99756.28;5009492;28;20053;-86
2022/06/04 11:58:33;;;;;;;3.67;1.58;;;;;;;33.79;35.04;99754.94;5010917;28;20504;-89
2022/06/04 12:01:03;;;;;;;1.85;1.58;;;;;;;34.05;34.71;99753.91;5009913;28;20029;-88
2022/06/04 12:04:00;;;;;;;2.47;1.88;;;;;;;33.66;35.89;99766.38;5009310;28;20045;-91